Veldhoven, Netherlands
Current Conditions -  °F | °C
As of 9:25 AM on Friday 19 Dec 2014 (Local Time) from EHEH Reporting Station
Light Rain Light Rain  
Wind Chill: 52°   Ceiling: 1000
Heat Index: 52°   Visibility: 2.8mi
Dew Point: 50°   Wind: 23mph
Humidity: 94%   Direction: 230°SW
Pressure: 29.77"   Gusts: 35mph
Location:  51.42°N, 5.4°E
Report Text: EHEH 190825Z AUTO 23020G30KT 4500 -RA FEW007 SCT009 BKN01011/10 Q1008 RERA REDZGRN 23019G30KT 4500 DZRA FEW007 SCT009 OVC011 TEMPO 23022G35KT 3000SCT006 BKN008
Loading
Personal Weather Stations






























Interactive Weather Map New forecast layout! Learn more

10-Day Weather Forecast

Advertisements
Track Severe Weather on mobile